Time;durP1;ratioP1;P1;durP2;ratioP2;P2;SDS_P1;SDS_P2;PMS_P1;PMS_P2;Temp;Humidity;BMP_temperature;BMP_pressure;BME280_temperature;BME280_humidity;BME280_pressure;Samples;Min_cycle;Max_cycle;Signal;HPM_P1;HPM_P2
2022/07/23 00:00:19;;;;;;;18.17;16.10;;;18.90;99.90;;;;;;5073457;28;20120;-64
2022/07/23 00:02:46;;;;;;;21.80;16.27;;;18.90;99.90;;;;;;5072876;28;20040;-64
2022/07/23 00:05:13;;;;;;;26.42;18.35;;;18.90;99.90;;;;;;5072939;28;20063;-64
2022/07/23 00:07:40;;;;;;;23.13;16.67;;;18.80;99.90;;;;;;5074166;28;20040;-64
2022/07/23 00:10:08;;;;;;;19.38;14.60;;;18.70;99.90;;;;;;5084609;28;20043;-64
2022/07/23 00:12:35;;;;;;;20.90;16.35;;;18.70;99.90;;;;;;5075114;28;20039;-65
2022/07/23 00:15:04;;;;;;;25.60;17.55;;;18.70;99.90;;;;;;5093352;28;20429;-65
2022/07/23 00:17:31;;;;;;;21.38;16.67;;;18.70;99.90;;;;;;5092349;28;20398;-65
2022/07/23 00:19:58;;;;;;;21.58;16.40;;;18.60;99.90;;;;;;5093050;28;20491;-65
2022/07/23 00:22:25;;;;;;;20.48;15.68;;;18.60;99.90;;;;;;5094259;28;20441;-65
2022/07/23 00:24:52;;;;;;;21.73;15.70;;;18.60;99.90;;;;;;5093577;28;20051;-66
2022/07/23 00:27:39;;;;;;;18.98;16.80;;;18.60;99.90;;;;;;5092434;28;20039;-65
2022/07/23 00:30:06;;;;;;;17.15;15.30;;;18.50;99.90;;;;;;5093893;28;20245;-66
2022/07/23 00:32:48;;;;;;;22.15;15.75;;;18.50;99.90;;;;;;5091908;28;20044;-65
2022/07/23 00:35:22;;;;;;;20.77;16.23;;;18.50;99.90;;;;;;5090806;28;20042;-65
2022/07/23 00:37:50;;;;;;;19.80;16.27;;;18.50;99.90;;;;;;5090920;28;20036;-65
2022/07/23 00:40:17;;;;;;;22.48;16.77;;;18.40;99.90;;;;;;5091968;28;20807;-65
2022/07/23 00:42:44;;;;;;;22.90;16.75;;;18.40;99.90;;;;;;5074437;28;20039;-64
2022/07/23 00:45:11;;;;;;;20.73;16.25;;;18.40;99.90;;;;;;5085908;28;20131;-64
2022/07/23 00:47:38;;;;;;;20.20;17.58;;;18.40;99.90;;;;;;5073523;28;20059;-65
2022/07/23 00:50:08;;;;;;;22.38;16.73;;;18.40;99.90;;;;;;5072549;28;20048;-64
2022/07/23 00:52:36;;;;;;;21.67;17.50;;;18.40;99.90;;;;;;5071756;28;20093;-65
2022/07/23 00:55:04;;;;;;;21.20;17.75;;;18.40;99.90;;;;;;5037627;28;20607;-64
2022/07/23 00:57:31;;;;;;;20.48;16.85;;;18.30;99.90;;;;;;5073174;28;20098;-65
2022/07/23 00:59:58;;;;;;;22.85;16.83;;;18.30;99.90;;;;;;5072631;28;20137;-64
2022/07/23 01:02:26;;;;;;;29.70;15.88;;;18.30;99.90;;;;;;5073061;28;20040;-65
2022/07/23 01:04:53;;;;;;;20.80;16.80;;;18.30;99.90;;;;;;5070859;28;20052;-64
2022/07/23 01:07:21;;;;;;;22.50;16.15;;;18.30;99.90;;;;;;5071127;28;20048;-65
2022/07/23 01:09:49;;;;;;;16.80;14.07;;;18.30;99.90;;;;;;5085298;28;20047;-65
2022/07/23 01:12:15;;;;;;;17.20;14.07;;;18.30;99.90;;;;;;5083474;28;20044;-65
2022/07/23 01:14:42;;;;;;;22.73;15.98;;;18.30;99.90;;;;;;5074408;28;20059;-65
2022/07/23 01:17:09;;;;;;;21.00;15.75;;;18.30;99.90;;;;;;5058545;28;20044;-65
2022/07/23 01:19:36;;;;;;;16.58;14.55;;;18.30;99.90;;;;;;5058384;28;20167;-65
2022/07/23 01:22:04;;;;;;;18.83;15.30;;;18.30;99.90;;;;;;5075807;28;20093;-65
2022/07/23 01:24:31;;;;;;;18.05;15.38;;;18.30;99.90;;;;;;5074822;28;20133;-65
2022/07/23 01:27:05;;;;;;;19.60;14.40;;;18.20;99.90;;;;;;5074556;28;20040;-65
2022/07/23 01:29:34;;;;;;;15.73;13.55;;;18.20;99.90;;;;;;5057744;28;20052;-65
2022/07/23 01:32:05;;;;;;;16.55;13.95;;;18.20;99.90;;;;;;5074617;28;20048;-65
2022/07/23 01:34:32;;;;;;;23.88;15.35;;;18.20;99.90;;;;;;5074576;28;20044;-64
2022/07/23 01:36:59;;;;;;;23.85;15.52;;;18.10;99.90;;;;;;5091964;28;20043;-65
2022/07/23 01:39:26;;;;;;;16.38;14.48;;;18.10;99.90;;;;;;5085085;28;20108;-66
2022/07/23 01:41:53;;;;;;;19.58;15.48;;;18.10;99.90;;;;;;5077172;28;20043;-65
2022/07/23 01:44:21;;;;;;;16.85;14.38;;;18.00;99.90;;;;;;5075355;28;20558;-65
2022/07/23 01:46:47;;;;;;;20.05;15.52;;;18.00;99.90;;;;;;5076191;28;20109;-66
2022/07/23 01:49:16;;;;;;;16.73;14.15;;;18.10;99.90;;;;;;5057233;28;20048;-65
2022/07/23 01:52:06;;;;;;;18.33;14.05;;;18.10;99.90;;;;;;5075792;28;20496;-66
2022/07/23 01:54:45;;;;;;;19.50;15.65;;;18.00;99.90;;;;;;5073578;28;20058;-64
2022/07/23 01:57:12;;;;;;;18.27;15.25;;;18.00;99.90;;;;;;5075679;28;20059;-66
2022/07/23 01:59:39;;;;;;;19.00;14.27;;;18.00;99.90;;;;;;5074479;28;20040;-66
2022/07/23 02:02:07;;;;;;;20.80;14.05;;;18.00;99.90;;;;;;5074072;28;20075;-65
2022/07/23 02:04:37;;;;;;;18.27;15.90;;;18.10;99.90;;;;;;5073939;28;20043;-65
2022/07/23 02:07:04;;;;;;;20.80;16.48;;;18.20;99.90;;;;;;5057508;28;21120;-64
2022/07/23 02:09:32;;;;;;;20.00;14.68;;;18.20;99.90;;;;;;5081543;28;20035;-66
2022/07/23 02:11:59;;;;;;;15.50;12.88;;;18.20;99.90;;;;;;5084285;28;20051;-65
2022/07/23 02:14:25;;;;;;;;;;;18.20;99.90;;;;;;5075076;28;20036;-65
2022/07/23 02:16:52;;;;;;;16.70;15.00;;;18.20;99.90;;;;;;5073634;28;19931;-65
2022/07/23 02:19:20;;;;;;;21.17;15.90;;;18.30;99.90;;;;;;5074788;28;20052;-65
2022/07/23 02:21:47;;;;;;;22.60;17.52;;;18.20;99.90;;;;;;5075275;28;20039;-65
2022/07/23 02:24:13;;;;;;;16.88;15.07;;;18.10;99.90;;;;;;5074708;28;20048;-65
2022/07/23 02:26:41;;;;;;;19.05;16.48;;;18.10;99.90;;;;;;5073955;28;20044;-64
2022/07/23 02:29:08;;;;;;;19.67;14.75;;;18.10;99.90;;;;;;5073283;28;20519;-64
2022/07/23 02:31:35;;;;;;;15.00;13.40;;;18.00;99.90;;;;;;5075378;28;20047;-64
2022/07/23 02:34:03;;;;;;;17.95;14.07;;;18.00;99.90;;;;;;5055989;28;20048;-64
2022/07/23 02:36:30;;;;;;;17.02;13.52;;;18.00;99.90;;;;;;5066822;28;20079;-63
2022/07/23 02:38:58;;;;;;;17.00;15.20;;;18.00;99.90;;;;;;5076791;28;20043;-64
2022/07/23 02:41:28;;;;;;;24.70;16.77;;;18.00;99.90;;;;;;5091340;28;20071;-63
2022/07/23 02:43:55;;;;;;;21.52;17.17;;;17.90;99.90;;;;;;5076060;28;20422;-63
2022/07/23 02:46:22;;;;;;;19.92;15.65;;;17.80;99.90;;;;;;5093113;28;20051;-64
2022/07/23 02:48:49;;;;;;;24.90;17.30;;;17.70;99.90;;;;;;5093763;28;20048;-64
2022/07/23 02:51:16;;;;;;;21.02;16.50;;;17.70;99.90;;;;;;5075877;28;20044;-63
2022/07/23 02:53:51;;;;;;;21.90;19.13;;;17.60;99.90;;;;;;5076352;28;20075;-64
2022/07/23 02:56:17;;;;;;;;;;;17.70;99.90;;;;;;5093555;28;20047;-63
2022/07/23 02:58:44;;;;;;;20.73;15.77;;;17.70;99.90;;;;;;5094841;28;20443;-64
2022/07/23 03:01:12;;;;;;;21.27;17.95;;;17.70;99.90;;;;;;5083476;28;20519;-64
2022/07/23 03:03:39;;;;;;;19.98;17.88;;;17.70;99.90;;;;;;5069948;28;20062;-64
2022/07/23 03:06:06;;;;;;;22.15;19.73;;;17.70;99.90;;;;;;5094527;28;20043;-63
2022/07/23 03:08:34;;;;;;;23.20;20.75;;;17.70;99.90;;;;;;5092643;28;20063;-64
2022/07/23 03:11:01;;;;;;;22.38;18.80;;;17.60;99.90;;;;;;5076818;28;20047;-63
2022/07/23 03:13:29;;;;;;;25.88;18.65;;;17.60;99.90;;;;;;5075253;28;20186;-63
2022/07/23 03:15:57;;;;;;;21.30;17.77;;;17.60;99.90;;;;;;5076208;28;20108;-64
2022/07/23 03:18:24;;;;;;;;;;;17.60;99.90;;;;;;5093302;28;20756;-63
2022/07/23 03:20:51;;;;;;;18.55;15.80;;;17.60;99.90;;;;;;5094293;28;19924;-63
2022/07/23 03:23:17;;;;;;;23.20;17.40;;;17.60;99.90;;;;;;5094423;28;20075;-64
2022/07/23 03:25:46;;;;;;;;;;;17.70;99.90;;;;;;5093348;28;20040;-63
2022/07/23 03:28:20;;;;;;;18.92;15.77;;;17.70;99.90;;;;;;5075917;28;19930;-63
2022/07/23 03:30:48;;;;;;;24.48;20.27;;;17.80;99.90;;;;;;5093439;28;20104;-64
2022/07/23 03:33:19;;;;;;;19.23;16.45;;;17.80;99.90;;;;;;5093437;28;20046;-63
2022/07/23 03:35:47;;;;;;;21.98;18.67;;;17.80;99.90;;;;;;5070872;28;20105;-63
2022/07/23 03:38:24;;;;;;;27.38;20.50;;;17.90;99.90;;;;;;5073093;28;20466;-64
2022/07/23 03:40:52;;;;;;;20.70;18.48;;;17.90;99.90;;;;;;5074962;28;20039;-64
2022/07/23 03:43:19;;;;;;;24.63;18.45;;;18.00;99.90;;;;;;5073445;28;20056;-64
2022/07/23 03:45:46;;;;;;;27.20;19.58;;;18.00;99.90;;;;;;5094075;28;20372;-65
2022/07/23 03:48:14;;;;;;;21.65;17.73;;;18.00;99.90;;;;;;5074272;28;20593;-64
2022/07/23 03:50:40;;;;;;;;;;;18.00;99.90;;;;;;5093155;28;20054;-63
2022/07/23 03:53:07;;;;;;;23.38;19.55;;;18.00;99.90;;;;;;5075284;28;20497;-63
2022/07/23 03:55:34;;;;;;;23.70;20.00;;;17.90;99.90;;;;;;5075358;28;20392;-63
2022/07/23 03:58:02;;;;;;;27.45;20.92;;;17.90;99.90;;;;;;5074714;28;20043;-62
2022/07/23 04:00:29;;;;;;;25.08;20.65;;;17.90;99.90;;;;;;5092697;28;20129;-63
2022/07/23 04:02:56;;;;;;;20.95;18.75;;;17.90;99.90;;;;;;5075070;28;20107;-63
2022/07/23 04:05:23;;;;;;;24.73;20.73;;;17.80;99.90;;;;;;5075060;28;20052;-63
2022/07/23 04:07:56;;;;;;;22.33;18.23;;;17.80;99.90;;;;;;5091639;28;20039;-64
2022/07/23 04:10:23;;;;;;;27.67;18.55;;;17.80;99.90;;;;;;5060824;28;20051;-64
2022/07/23 04:12:50;;;;;;;20.38;17.60;;;17.80;99.90;;;;;;5087317;28;20039;-63
2022/07/23 04:15:17;;;;;;;19.35;17.45;;;17.80;99.90;;;;;;5071519;28;20159;-64
2022/07/23 04:17:44;;;;;;;21.33;16.75;;;17.70;99.90;;;;;;5073692;28;20047;-63
2022/07/23 04:20:12;;;;;;;18.60;14.50;;;17.70;99.90;;;;;;5054922;28;20515;-64
2022/07/23 04:22:46;;;;;;;17.10;12.20;;;17.70;99.90;;;;;;5072347;28;20131;-64
2022/07/23 04:25:16;;;;;;;16.05;11.70;;;17.70;99.90;;;;;;5071507;28;20144;-65
2022/07/23 04:27:44;;;;;;;14.98;12.52;;;17.60;99.90;;;;;;5054675;28;20056;-65
2022/07/23 04:30:11;;;;;;;16.33;12.90;;;17.50;99.90;;;;;;5071910;28;20260;-64
2022/07/23 04:32:39;;;;;;;17.00;14.05;;;17.50;99.90;;;;;;5054398;28;20048;-64
2022/07/23 04:35:17;;;;;;;15.70;11.13;;;17.50;99.90;;;;;;5058255;28;20032;-65
2022/07/23 04:37:53;;;;;;;12.80;9.98;;;17.40;99.90;;;;;;5088582;28;20108;-64
2022/07/23 04:40:26;;;;;;;16.70;12.15;;;17.40;99.90;;;;;;5095932;28;20113;-62
2022/07/23 04:43:01;;;;;;;15.15;9.85;;;17.30;99.90;;;;;;5096070;28;20043;-64
2022/07/23 04:45:46;;;;;;;11.75;9.60;;;17.30;99.90;;;;;;5080661;28;20079;-64
2022/07/23 04:48:14;;;;;;;9.93;8.70;;;17.30;99.90;;;;;;5076991;28;20053;-64
2022/07/23 04:50:43;;;;;;;17.08;10.43;;;17.20;99.90;;;;;;5095771;28;20050;-64
2022/07/23 04:53:48;;;;;;;10.45;9.40;;;17.30;99.90;;;;;;5081461;28;20052;-64
2022/07/23 04:56:18;;;;;;;17.33;8.57;;;17.20;99.90;;;;;;5101459;28;20129;-64
2022/07/23 04:58:54;;;;;;;17.15;8.75;;;17.20;99.90;;;;;;5086511;28;20052;-65
2022/07/23 05:01:21;;;;;;;13.30;10.60;;;17.30;99.90;;;;;;5086094;28;20035;-64
2022/07/23 05:03:49;;;;;;;14.13;11.75;;;17.30;99.90;;;;;;5101423;28;20043;-63
2022/07/23 05:06:16;;;;;;;18.67;11.90;;;17.40;99.90;;;;;;5100932;28;20147;-65
2022/07/23 05:08:43;;;;;;;17.33;13.43;;;17.40;99.90;;;;;;5100766;28;20044;-65
2022/07/23 05:11:12;;;;;;;16.55;14.35;;;17.50;99.90;;;;;;5083943;28;20147;-65
2022/07/23 05:13:39;;;;;;;14.73;12.48;;;17.50;99.90;;;;;;5058620;28;20044;-63
2022/07/23 05:16:08;;;;;;;18.35;14.70;;;17.50;99.90;;;;;;5046413;28;20138;-64
2022/07/23 05:18:37;;;;;;;17.10;14.32;;;17.40;99.90;;;;;;5063625;28;20036;-64
2022/07/23 05:21:05;;;;;;;15.13;12.57;;;17.50;99.90;;;;;;5063657;28;20051;-65
2022/07/23 05:23:35;;;;;;;16.70;13.25;;;17.50;99.90;;;;;;5063811;28;20060;-66
2022/07/23 05:26:02;;;;;;;22.00;13.75;;;17.50;99.90;;;;;;5046446;28;20056;-62
2022/07/23 05:28:31;;;;;;;18.30;13.35;;;17.50;99.90;;;;;;5063192;28;20052;-64
2022/07/23 05:30:58;;;;;;;17.38;13.95;;;17.50;99.90;;;;;;5062648;28;20929;-51
2022/07/23 05:33:25;;;;;;;21.63;15.73;;;17.60;99.90;;;;;;5058015;28;20040;-52
2022/07/23 05:35:52;;;;;;;14.00;12.60;;;17.60;99.90;;;;;;5060364;28;20496;-52
2022/07/23 05:38:26;;;;;;;18.75;15.20;;;17.60;99.90;;;;;;5076861;28;20547;-55
2022/07/23 05:40:57;;;;;;;14.30;12.30;;;17.60;99.90;;;;;;5058232;28;20529;-53
2022/07/23 05:43:25;;;;;;;13.32;11.93;;;17.70;99.90;;;;;;5083500;28;20043;-51
2022/07/23 05:45:53;;;;;;;14.88;13.35;;;17.80;99.90;;;;;;5061440;28;20052;-51
2022/07/23 05:48:21;;;;;;;16.92;14.27;;;17.90;99.90;;;;;;5058953;28;20128;-54
2022/07/23 05:51:06;;;;;;;15.05;13.40;;;18.00;99.90;;;;;;5062699;28;20063;-51
2022/07/23 05:53:35;;;;;;;15.45;13.48;;;18.00;99.90;;;;;;5044480;28;20791;-54
2022/07/23 05:56:09;;;;;;;13.82;12.18;;;18.10;99.90;;;;;;5045321;28;20074;-52
2022/07/23 05:58:37;;;;;;;16.80;11.70;;;18.10;99.90;;;;;;5061526;28;20048;-52
2022/07/23 06:01:04;;;;;;;14.35;12.52;;;18.10;99.90;;;;;;5076848;28;20137;-54
2022/07/23 06:03:39;;;;;;;13.65;12.25;;;18.20;99.90;;;;;;5041823;28;20080;-54
2022/07/23 06:06:06;;;;;;;16.02;13.52;;;18.20;99.90;;;;;;5074869;28;20048;-55
2022/07/23 06:08:33;;;;;;;17.85;14.18;;;18.20;99.90;;;;;;5075881;28;20062;-53
2022/07/23 06:11:00;;;;;;;15.90;13.43;;;18.20;99.90;;;;;;5072279;28;20067;-53
2022/07/23 06:13:27;;;;;;;15.65;13.48;;;18.20;99.90;;;;;;5056275;28;20044;-53
2022/07/23 06:15:54;;;;;;;15.80;13.25;;;18.20;99.90;;;;;;5075358;28;21129;-53
2022/07/23 06:18:21;;;;;;;18.80;15.25;;;18.30;99.90;;;;;;5074585;28;20094;-53
2022/07/23 06:20:48;;;;;;;17.20;15.38;;;18.30;99.90;;;;;;5073473;28;20723;-52
2022/07/23 06:23:17;;;;;;;16.90;12.80;;;18.40;99.90;;;;;;5074551;28;20047;-53
2022/07/23 06:25:44;;;;;;;14.32;12.85;;;18.40;99.90;;;;;;5073549;28;20047;-53
2022/07/23 06:28:11;;;;;;;15.82;13.48;;;18.40;99.90;;;;;;5075052;28;20051;-53
2022/07/23 06:30:38;;;;;;;16.00;12.93;;;18.50;99.90;;;;;;5057176;28;20048;-53
2022/07/23 06:33:05;;;;;;;14.20;12.68;;;18.50;99.90;;;;;;5073291;28;20052;-51
2022/07/23 06:35:33;;;;;;;16.70;14.05;;;18.60;99.90;;;;;;5074786;28;20142;-54
2022/07/23 06:38:01;;;;;;;14.48;13.07;;;18.60;99.90;;;;;;5083316;28;20039;-52
2022/07/23 06:40:28;;;;;;;17.60;13.55;;;18.60;99.90;;;;;;5091473;27;20660;-53
2022/07/23 06:42:55;;;;;;;16.25;12.93;;;18.60;99.90;;;;;;5109895;27;20054;-51
2022/07/23 06:45:22;;;;;;;16.27;12.80;;;18.60;99.90;;;;;;5073971;28;20427;-53
2022/07/23 06:47:49;;;;;;;17.35;13.23;;;18.70;99.90;;;;;;5056892;28;20066;-52
2022/07/23 06:50:18;;;;;;;14.43;11.73;;;18.60;99.90;;;;;;5055448;28;20051;-54
2022/07/23 06:52:45;;;;;;;15.52;11.82;;;18.60;99.90;;;;;;5072884;28;20059;-63
2022/07/23 06:55:12;;;;;;;15.73;12.90;;;18.60;99.90;;;;;;5072165;28;20834;-53
2022/07/23 06:57:39;;;;;;;18.10;14.77;;;18.50;99.90;;;;;;5073105;28;20048;-52
2022/07/23 07:00:06;;;;;;;15.65;13.60;;;18.50;99.90;;;;;;5055584;28;20044;-52
2022/07/23 07:02:33;;;;;;;14.98;13.40;;;18.40;99.90;;;;;;5071570;28;20059;-53
2022/07/23 07:05:00;;;;;;;14.23;11.98;;;18.40;99.90;;;;;;5055197;28;20042;-52
2022/07/23 07:07:32;;;;;;;13.98;12.48;;;18.40;99.90;;;;;;5073654;28;20138;-51
2022/07/23 07:09:59;;;;;;;16.65;14.93;;;18.40;99.90;;;;;;5073259;28;20047;-51
2022/07/23 07:12:26;;;;;;;13.70;12.30;;;18.30;99.90;;;;;;5086416;28;20099;-52
2022/07/23 07:14:53;;;;;;;19.98;15.07;;;18.30;99.90;;;;;;5071696;28;20105;-51
2022/07/23 07:17:20;;;;;;;16.65;14.48;;;18.30;99.90;;;;;;5073512;28;20105;-61
2022/07/23 07:19:47;;;;;;;15.88;13.75;;;18.20;99.90;;;;;;5072546;28;20036;-50
2022/07/23 07:22:13;;;;;;;15.07;11.57;;;18.20;99.90;;;;;;5073615;28;20044;-49
2022/07/23 07:24:40;;;;;;;13.23;11.13;;;18.20;99.90;;;;;;5080813;28;20737;-48
2022/07/23 07:27:07;;;;;;;13.40;11.63;;;18.20;99.90;;;;;;5093325;28;20058;-51
2022/07/23 07:29:34;;;;;;;;;;;18.20;99.90;;;;;;5094675;28;20081;-50
2022/07/23 07:32:00;;;;;;;12.38;11.18;;;18.20;99.90;;;;;;5092973;28;19923;-52
2022/07/23 07:34:27;;;;;;;13.82;11.93;;;18.20;99.90;;;;;;5093881;28;20075;-52
2022/07/23 07:36:54;;;;;;;16.40;11.32;;;18.20;99.90;;;;;;5089897;28;20051;-56
2022/07/23 07:39:21;;;;;;;14.82;10.82;;;18.10;99.90;;;;;;5092464;28;20473;-54
2022/07/23 07:41:47;;;;;;;15.65;11.52;;;18.10;99.90;;;;;;5093393;28;20645;-53
2022/07/23 07:44:14;;;;;;;13.82;11.40;;;18.10;99.90;;;;;;5092142;28;20059;-58
2022/07/23 07:46:41;;;;;;;17.50;12.48;;;18.10;99.90;;;;;;5073056;28;20043;-57
2022/07/23 07:49:08;;;;;;;16.30;13.50;;;18.10;99.90;;;;;;5074089;28;20079;-55
2022/07/23 07:51:42;;;;;;;12.50;11.23;;;18.00;99.90;;;;;;5072939;28;20591;-58
2022/07/23 07:54:11;;;;;;;14.45;12.63;;;18.00;99.90;;;;;;5072180;28;20480;-59
2022/07/23 07:56:39;;;;;;;14.55;12.10;;;18.00;99.90;;;;;;5070296;28;20055;-54
2022/07/23 07:59:06;;;;;;;13.88;12.25;;;18.00;99.90;;;;;;5072412;28;20044;-55
2022/07/23 08:01:33;;;;;;;14.70;11.35;;;18.00;99.90;;;;;;5071049;28;20602;-54
2022/07/23 08:04:00;;;;;;;18.92;12.65;;;18.00;99.90;;;;;;5072852;28;20561;-54
2022/07/23 08:06:27;;;;;;;16.85;11.60;;;18.00;99.90;;;;;;5070073;28;20160;-53
2022/07/23 08:08:54;;;;;;;16.40;11.75;;;18.10;99.90;;;;;;5073721;28;20048;-53
2022/07/23 08:11:21;;;;;;;16.15;12.07;;;18.10;99.90;;;;;;5086513;28;20051;-53
2022/07/23 08:13:48;;;;;;;14.27;11.60;;;18.10;99.90;;;;;;5071292;28;20040;-54
2022/07/23 08:16:15;;;;;;;14.55;11.07;;;18.10;99.90;;;;;;5071244;28;20135;-54
2022/07/23 08:18:42;;;;;;;13.48;11.05;;;18.10;99.90;;;;;;5075157;28;20054;-53
2022/07/23 08:21:09;;;;;;;14.32;11.73;;;18.10;99.90;;;;;;5059207;28;20065;-56
2022/07/23 08:23:36;;;;;;;15.95;11.77;;;18.10;99.90;;;;;;5075763;28;20044;-53
2022/07/23 08:26:03;;;;;;;17.33;12.85;;;18.10;99.90;;;;;;5077216;28;20040;-54
2022/07/23 08:28:32;;;;;;;13.75;11.52;;;18.10;99.90;;;;;;5076816;28;20050;-55
2022/07/23 08:31:00;;;;;;;16.85;12.35;;;18.10;99.90;;;;;;5076894;28;20052;-54
2022/07/23 08:33:27;;;;;;;12.40;11.07;;;18.10;99.90;;;;;;5075944;28;20046;-56
2022/07/23 08:36:02;;;;;;;21.23;12.48;;;18.10;99.90;;;;;;5089132;28;20036;-54
2022/07/23 08:38:30;;;;;;;14.82;13.13;;;18.10;99.90;;;;;;5077567;28;20090;-54
2022/07/23 08:40:58;;;;;;;22.30;14.98;;;18.10;99.90;;;;;;5074210;28;20048;-55
2022/07/23 08:43:27;;;;;;;19.05;14.00;;;18.10;99.90;;;;;;5076466;28;20055;-54
2022/07/23 08:45:56;;;;;;;16.15;12.23;;;18.10;99.90;;;;;;5078381;28;20055;-50
2022/07/23 08:48:26;;;;;;;18.58;12.93;;;18.20;99.90;;;;;;5094204;28;20052;-54
2022/07/23 08:50:55;;;;;;;14.65;11.70;;;18.20;99.90;;;;;;5096680;28;20578;-52
2022/07/23 08:53:26;;;;;;;13.45;11.75;;;18.20;99.90;;;;;;5094250;28;20647;-53
2022/07/23 08:55:58;;;;;;;43.38;13.65;;;18.20;99.90;;;;;;5096820;28;20092;-53
2022/07/23 08:58:25;;;;;;;23.92;13.38;;;18.20;99.90;;;;;;5096305;28;20943;-52
2022/07/23 09:00:56;;;;;;;17.00;11.43;;;18.20;99.90;;;;;;5096243;28;20063;-51
2022/07/23 09:03:26;;;;;;;13.77;10.75;;;18.10;99.90;;;;;;5095713;28;20039;-51
2022/07/23 09:05:56;;;;;;;21.02;11.95;;;18.20;99.90;;;;;;5095232;28;20050;-53
2022/07/23 09:08:39;;;;;;;14.88;11.15;;;18.20;99.90;;;;;;5093972;28;20687;-52
2022/07/23 09:11:11;;;;;;;16.30;11.80;;;18.10;99.90;;;;;;5078573;28;20128;-53
2022/07/23 09:13:58;;;;;;;19.70;12.63;;;18.10;99.90;;;;;;5085623;28;20044;-54
2022/07/23 09:16:29;;;;;;;14.55;11.40;;;18.10;99.90;;;;;;5056487;28;20603;-53
2022/07/23 09:19:04;;;;;;;21.20;10.73;;;18.10;99.90;;;;;;5077552;28;20927;-54
2022/07/23 09:21:33;;;;;;;24.20;12.27;;;18.10;99.90;;;;;;5096024;28;20036;-52
2022/07/23 09:24:07;;;;;;;16.27;12.48;;;18.10;99.90;;;;;;5076657;28;20051;-60
2022/07/23 09:26:41;;;;;;;14.65;10.98;;;18.10;99.90;;;;;;5096008;28;20562;-49
2022/07/23 09:29:20;;;;;;;12.43;10.48;;;18.10;99.90;;;;;;5095078;28;20051;-50
2022/07/23 09:31:54;;;;;;;14.60;11.32;;;18.00;99.90;;;;;;5089120;28;20577;-54
2022/07/23 09:34:27;;;;;;;14.10;11.75;;;18.10;99.90;;;;;;5075082;28;20040;-53
2022/07/23 09:36:57;;;;;;;13.00;10.40;;;18.10;99.90;;;;;;5077574;28;20588;-54
2022/07/23 09:39:32;;;;;;;12.98;10.82;;;18.10;99.90;;;;;;5075666;28;20117;-52
2022/07/23 09:42:20;;;;;;;15.75;10.48;;;18.10;99.90;;;;;;5072905;28;20657;-62
2022/07/23 09:44:56;;;;;;;11.80;10.13;;;18.10;99.90;;;;;;5086807;28;20047;-51
2022/07/23 09:47:26;;;;;;;11.45;10.23;;;18.10;99.90;;;;;;5095081;28;20507;-54
2022/07/23 09:50:06;;;;;;;13.77;10.25;;;18.10;99.90;;;;;;5093981;28;20059;-53
2022/07/23 09:52:40;;;;;;;11.35;9.93;;;18.10;99.90;;;;;;5095878;28;20051;-61
2022/07/23 09:55:08;;;;;;;15.57;11.18;;;18.10;99.90;;;;;;5095267;28;20986;-61
2022/07/23 09:57:35;;;;;;;15.07;10.57;;;18.20;99.90;;;;;;5096013;28;20543;-51
2022/07/23 10:00:05;;;;;;;11.07;9.25;;;18.10;99.90;;;;;;5095293;28;20070;-55
2022/07/23 10:02:33;;;;;;;11.95;10.35;;;18.10;99.90;;;;;;5094940;28;20380;-54
2022/07/23 10:05:43;;;;;;;18.67;11.07;;;18.10;99.90;;;;;;5030712;28;20520;-54
2022/07/23 10:08:29;;;;;;;13.65;10.27;;;18.10;99.90;;;;;;5032155;28;20791;-53
2022/07/23 10:11:15;;;;;;;13.75;10.15;;;18.00;99.90;;;;;;5058776;28;20136;-54
2022/07/23 10:14:09;;;;;;;41.38;9.68;;;18.00;99.90;;;;;;5078255;28;20059;-56
2022/07/23 10:16:54;;;;;;;14.55;10.40;;;18.00;99.90;;;;;;5074637;28;20177;-55
2022/07/23 10:19:22;;;;;;;11.85;9.60;;;17.90;99.90;;;;;;5074605;28;20039;-54
2022/07/23 10:21:54;;;;;;;9.85;8.85;;;17.90;99.90;;;;;;5057088;28;20139;-54
2022/07/23 10:24:33;;;;;;;12.75;9.60;;;17.90;99.90;;;;;;5074386;28;20044;-54
2022/07/23 10:27:21;;;;;;;12.48;9.93;;;18.00;99.90;;;;;;5074995;28;20747;-54
2022/07/23 10:29:57;;;;;;;10.77;9.32;;;18.10;99.90;;;;;;5074017;28;20040;-56
2022/07/23 10:32:39;;;;;;;9.40;8.33;;;18.20;99.90;;;;;;5074637;28;20052;-54
2022/07/23 10:35:25;;;;;;;10.52;9.48;;;18.20;99.90;;;;;;5073833;28;20477;-55
2022/07/23 10:38:10;;;;;;;11.25;9.45;;;18.40;99.90;;;;;;5056906;28;20077;-55
2022/07/23 10:40:49;;;;;;;13.57;9.93;;;18.50;99.90;;;;;;5071791;28;20640;-55
2022/07/23 10:43:18;;;;;;;10.05;9.13;;;18.60;99.90;;;;;;5073339;28;20775;-55
2022/07/23 10:45:49;;;;;;;12.65;9.48;;;18.60;99.90;;;;;;5074126;28;20403;-52
2022/07/23 10:48:22;;;;;;;10.32;9.23;;;18.80;99.90;;;;;;5079783;28;20036;-50
2022/07/23 10:51:27;;;;;;;11.13;9.48;;;18.90;99.90;;;;;;5090545;28;20179;-54
2022/07/23 10:53:56;;;;;;;13.32;10.13;;;19.10;99.90;;;;;;5009181;28;20103;-53
2022/07/23 10:56:54;;;;;;;10.50;9.40;;;19.30;99.90;;;;;;5063120;28;20487;-54
2022/07/23 10:59:21;;;;;;;10.52;8.85;;;19.40;99.90;;;;;;5094450;28;20043;-53
2022/07/23 11:01:48;;;;;;;12.32;9.38;;;19.50;99.90;;;;;;5093646;28;20821;-55
2022/07/23 11:04:15;;;;;;;9.48;8.50;;;19.60;99.90;;;;;;5093571;28;20066;-54
2022/07/23 11:06:48;;;;;;;8.50;7.57;;;19.70;99.90;;;;;;5093113;28;20733;-55
2022/07/23 11:09:26;;;;;;;9.45;8.10;;;19.90;99.90;;;;;;5089451;28;20650;-55
2022/07/23 11:12:19;;;;;;;11.07;8.52;;;20.00;99.90;;;;;;5083778;28;20062;-56
2022/07/23 11:15:07;;;;;;;10.30;8.18;;;20.30;99.90;;;;;;5043016;28;20059;-55
2022/07/23 11:17:51;;;;;;;9.15;8.18;;;20.50;99.90;;;;;;5074429;28;20058;-55
2022/07/23 11:20:21;;;;;;;10.88;8.18;;;20.70;99.90;;;;;;5073578;28;20234;-55
2022/07/23 11:22:54;;;;;;;8.10;7.30;;;20.90;99.90;;;;;;5073621;28;20644;-56
2022/07/23 11:25:21;;;;;;;8.48;7.68;;;21.00;99.90;;;;;;5073818;28;20047;-55
2022/07/23 11:27:49;;;;;;;8.98;7.13;;;21.00;99.90;;;;;;5072345;28;20399;-56
2022/07/23 11:30:28;;;;;;;8.70;7.32;;;21.00;99.90;;;;;;5072025;28;20136;-53
2022/07/23 11:33:07;;;;;;;8.73;7.88;;;21.00;99.90;;;;;;5072796;28;20040;-55
2022/07/23 11:35:36;;;;;;;9.35;7.78;;;21.00;99.90;;;;;;5076131;28;20407;-56
2022/07/23 11:38:22;;;;;;;8.77;7.80;;;21.00;99.90;;;;;;5092136;28;20078;-55
2022/07/23 11:40:54;;;;;;;8.88;8.00;;;21.00;99.90;;;;;;5094021;28;20048;-52
2022/07/23 11:43:21;;;;;;;9.70;8.35;;;21.00;99.90;;;;;;5092626;28;20043;-55
2022/07/23 11:45:52;;;;;;;10.00;9.00;;;20.90;99.90;;;;;;5093438;28;20419;-56
2022/07/23 11:48:21;;;;;;;11.40;8.90;;;20.90;99.90;;;;;;5092056;28;20710;-55
2022/07/23 11:50:50;;;;;;;10.70;9.70;;;20.90;99.90;;;;;;5091124;28;20035;-55
2022/07/23 11:53:31;;;;;;;10.40;8.27;;;21.00;99.90;;;;;;5093252;28;20122;-57
2022/07/23 11:56:05;;;;;;;9.45;8.48;;;21.00;99.90;;;;;;5074694;28;20777;-55
2022/07/23 11:58:32;;;;;;;8.50;7.55;;;21.00;99.90;;;;;;5073862;28;20698;-60
2022/07/23 12:00:59;;;;;;;11.75;8.60;;;21.10;99.90;;;;;;5072476;28;20047;-55
2022/07/23 12:03:27;;;;;;;9.05;8.15;;;21.20;99.90;;;;;;5072082;28;20144;-53
2022/07/23 12:05:59;;;;;;;9.55;8.65;;;21.30;99.90;;;;;;5072222;28;20044;-60
2022/07/23 12:08:26;;;;;;;11.73;9.23;;;21.50;99.90;;;;;;5072480;28;20040;-54
2022/07/23 12:10:52;;;;;;;10.85;9.13;;;21.70;99.90;;;;;;5088870;28;20116;-56
2022/07/23 12:13:21;;;;;;;10.50;9.32;;;21.90;99.90;;;;;;5070376;28;20036;-55
2022/07/23 12:15:51;;;;;;;10.23;9.13;;;22.10;99.90;;;;;;5072732;28;20093;-55
2022/07/23 12:18:25;;;;;;;9.90;8.65;;;22.30;99.90;;;;;;5072166;28;20160;-57
2022/07/23 12:20:55;;;;;;;10.52;7.85;;;22.50;99.90;;;;;;5055248;28;20044;-54
2022/07/23 12:23:24;;;;;;;10.80;8.82;;;22.70;99.90;;;;;;5072404;28;20036;-53
2022/07/23 12:25:53;;;;;;;10.85;8.48;;;22.90;99.90;;;;;;5073183;28;20044;-55
2022/07/23 12:28:26;;;;;;;9.98;8.98;;;23.20;99.90;;;;;;5073167;28;20040;-56
2022/07/23 12:30:55;;;;;;;12.18;8.13;;;23.40;99.90;;;;;;5073293;28;20930;-56
2022/07/23 12:33:31;;;;;;;9.73;8.57;;;23.60;99.90;;;;;;5072494;28;20047;-56
2022/07/23 12:36:00;;;;;;;8.95;8.05;;;23.90;99.90;;;;;;5074135;28;20051;-57
2022/07/23 12:38:35;;;;;;;8.52;7.55;;;24.10;99.90;;;;;;5072404;28;20052;-55
2022/07/23 12:41:04;;;;;;;10.13;7.38;;;24.20;99.90;;;;;;5072542;28;20044;-57
2022/07/23 12:43:37;;;;;;;13.88;7.35;;;24.40;99.90;;;;;;5073104;28;20122;-57
2022/07/23 12:46:11;;;;;;;8.60;7.30;;;24.70;99.90;;;;;;5072496;28;20117;-56